Darstellungsparameter: Aktuell verwendete Einstellungen:
Skalierung der Graphiken ... ?
xyx+y,   Skalierungsfaktor:      Skalierung: Modus: x, Faktor: 1
Darstellungszeitraum ... ?
Vom - - bis: - -   Zeitraum: 15.01.2021 - 17.01.2021
Min/Max/Avg-Anzeige ... ?
Zeige MMA aktuell
Zeige MMA Monat
Zeige MMA alles
Zeige --A aktuell
Zeige --A Monat
Zeige --A alles
Keine MMA-Anzeige
MMA:
Average (ber die Originaldaten)
MMA-Basis: 23.02.2003 - 03.08.2020
Quicknavigation für Darstellung... ?
Tage:      1T, 2T, 3T, 5T -1T -2T -3T -5T +1T +2T +3T +5T
Wochen: 1W, 2W, 3W -1W -2W -3W +1W +2W +3W
Monate: 1M, 3M, 6M -1M -3M -6M +1M +3M +6M
Jahre:    1J, 3J, 5J, 10J -1J -3J -5J -10J +1J +3J +5J +10J
Nutze für die Darstellung ... ?
Originaldaten oder ...
Mittelwerte Minima Maxima auf...
Stundenbasis Tagesbasis Wochenbasis
Monatsbasis Jahresbasis      Datenbasis: Mittelwerte auf Stundenbasis
Darstellen als:
Statistik (Auto) Statistik J:M      Darstellung:
Zur Graphik,    zurück zur Übersicht aller Sensoren.
 
Tabellarische Datenbersicht: ?
 
Sensor: Nr:Datum:Temp:Abs-Feuchte:Windchill:Wind:
Aussen-T/F 1 15-01-2021 00:00:00 -1.05833 C 4.06 g/m*3 -1.06 C 0.8 km/h
2 15-01-2021 01:00:00 -1.55 C 3.96 g/m*3 -1.55 C 0.8 km/h
3 15-01-2021 02:00:00 -2.04167 C 3.82 g/m*3 -2.04 C 0.66667 km/h
4 15-01-2021 03:00:00 -2.425 C 3.77 g/m*3 -2.42 C 0.13333 km/h
5 15-01-2021 04:00:00 -2.26667 C 3.85 g/m*3 -2.27 C 0.4 km/h
6 15-01-2021 05:00:00 -1.65833 C 4 g/m*3 -1.66 C 0 km/h
7 15-01-2021 06:00:00 -1.16667 C 4.1 g/m*3 -1.17 C 0 km/h
8 15-01-2021 07:00:00 -0.81667 C 4.17 g/m*3 -0.82 C 0 km/h
9 15-01-2021 08:00:00 -0.66667 C 4.2 g/m*3 -0.67 C 0 km/h
10 15-01-2021 09:00:00 -0.28333 C 4.29 g/m*3 -0.28 C 0 km/h
11 15-01-2021 10:00:00 -0.18333 C 4.28 g/m*3 -0.18 C 0.4 km/h
12 15-01-2021 11:00:00 0.10833 C 4.17 g/m*3 0.11 C 4.14167 km/h
13 15-01-2021 12:00:00 2.05 C 4.29 g/m*3 -0.75 C 9.55 km/h
14 15-01-2021 13:00:00 2.35 C 4.43 g/m*3 -0.26 C 9.00833 km/h
15 15-01-2021 14:00:00 2.45 C 4.52 g/m*3 0.24 C 7.65 km/h
16 15-01-2021 15:00:00 2.55833 C 4.63 g/m*3 0.62 C 6.84167 km/h
17 15-01-2021 16:00:00 2.325 C 4.66 g/m*3 0.35 C 6.84167 km/h
18 15-01-2021 17:00:00 2 C 4.58 g/m*3 2 C 2.13333 km/h
19 15-01-2021 18:00:00 1.71667 C 4.58 g/m*3 1.72 C 3.34167 km/h
20 15-01-2021 19:00:00 1.51667 C 4.66 g/m*3 1.52 C 3.73333 km/h
21 15-01-2021 20:00:00 1.39167 C 4.62 g/m*3 1.39 C 4 km/h
22 15-01-2021 21:00:00 1.24167 C 4.6 g/m*3 1.24 C 3.75 km/h
23 15-01-2021 22:00:00 1.11667 C 4.55 g/m*3 1.12 C 3.74167 km/h
24 15-01-2021 23:00:00 1.075 C 4.59 g/m*3 1.08 C 4 km/h
25 16-01-2021 00:00:00 0.85833 C 4.49 g/m*3 0.86 C 2.40833 km/h
Sensor: Nr:Datum:Temp:Abs-Feuchte:Windchill:Wind:
Aussen-T/F 26 16-01-2021 01:00:00 0.9 C 4.14 g/m*3 -1.21 C 6.59167 km/h
27 16-01-2021 02:00:00 0.79167 C 4.05 g/m*3 0.79 C 4.4 km/h
28 16-01-2021 03:00:00 0.625 C 4.07 g/m*3 0.63 C 2.4 km/h
29 16-01-2021 04:00:00 0.28333 C 4.1 g/m*3 0.28 C 0.13333 km/h
30 16-01-2021 05:00:00 0.09167 C 4.16 g/m*3 0.09 C 0.93333 km/h
31 16-01-2021 06:00:00 0.14167 C 4.15 g/m*3 0.14 C 0.8 km/h
32 16-01-2021 07:00:00 -0.05 C 4.16 g/m*3 -0.05 C 0.13333 km/h
33 16-01-2021 08:00:00 -0.15 C 4.19 g/m*3 -0.15 C 0 km/h
34 16-01-2021 09:00:00 0.04167 C 4.24 g/m*3 0.04 C 0.4 km/h
35 16-01-2021 10:00:00 0.83333 C 4.19 g/m*3 0.83 C 2.53333 km/h
36 16-01-2021 11:00:00 1.28333 C 4.21 g/m*3 1.28 C 4.675 km/h
37 16-01-2021 12:00:00 1.55 C 4.13 g/m*3 -0.45 C 6.55833 km/h
38 16-01-2021 13:00:00 1.6 C 4.05 g/m*3 0.19 C 5.09167 km/h
39 16-01-2021 14:00:00 1.4 C 3.87 g/m*3 1.4 C 3.33333 km/h
40 16-01-2021 15:00:00 1.25833 C 3.79 g/m*3 1.26 C 4.01667 km/h
41 16-01-2021 16:00:00 0.84167 C 3.8 g/m*3 0.84 C 1.06667 km/h
42 16-01-2021 17:00:00 -0.04167 C 3.92 g/m*3 -0.04 C 0 km/h
43 16-01-2021 18:00:00 -0.38333 C 3.93 g/m*3 -0.38 C 0 km/h
44 16-01-2021 19:00:00 -0.18333 C 4.02 g/m*3 -0.18 C 0.4 km/h
45 16-01-2021 20:00:00 -0.00833 C 4.25 g/m*3 -0.01 C 0.93333 km/h
46 16-01-2021 21:00:00 -0.28333 C 4.37 g/m*3 -0.28 C 0.4 km/h
47 16-01-2021 22:00:00 -0.44167 C 4.39 g/m*3 -0.44 C 0.53333 km/h
48 16-01-2021 23:00:00 -0.68333 C 4.34 g/m*3 -0.68 C 0.26667 km/h
49 17-01-2021 00:00:00 -0.78333 C 4.31 g/m*3 -0.78 C 0 km/h
50 17-01-2021 01:00:00 -0.975 C 4.26 g/m*3 -0.98 C 0 km/h
Sensor: Nr:Datum:Temp:Abs-Feuchte:Windchill:Wind:
Aussen-T/F 51 17-01-2021 02:00:00 -1.16667 C 4.2 g/m*3 -1.17 C 0 km/h
52 17-01-2021 03:00:00 -1.2 C 4.19 g/m*3 -1.2 C 0 km/h
53 17-01-2021 04:00:00 -1.16667 C 4.24 g/m*3 -1.17 C 0 km/h
54 17-01-2021 05:00:00 -1.03333 C 4.28 g/m*3 -1.03 C 0 km/h
55 17-01-2021 06:00:00 -0.85833 C 4.34 g/m*3 -0.86 C 0.13333 km/h
56 17-01-2021 07:00:00 -0.75 C 4.37 g/m*3 -0.75 C 0 km/h
57 17-01-2021 08:00:00 -0.65833 C 4.4 g/m*3 -0.66 C 0 km/h
58 17-01-2021 09:00:00 -0.25 C 4.53 g/m*3 -0.25 C 0.53333 km/h
59 17-01-2021 10:00:00 0.23333 C 4.68 g/m*3 0.23 C 0.4 km/h
60 17-01-2021 11:00:00 0.68333 C 4.82 g/m*3 0.68 C 0 km/h
61 17-01-2021 12:00:00 1.075 C 4.94 g/m*3 1.08 C 0 km/h
62 17-01-2021 13:00:00 1.34167 C 5 g/m*3 1.34 C 2.26667 km/h
63 17-01-2021 14:00:00 1.39167 C 5.06 g/m*3 1.39 C 2.4 km/h
64 17-01-2021 15:00:00 1.6 C 5.14 g/m*3 1.6 C 0.13333 km/h
65 17-01-2021 16:00:00 1.50833 C 5.11 g/m*3 1.51 C 0.4 km/h
66 17-01-2021 17:00:00 1.58333 C 5.18 g/m*3 1.58 C 1.46667 km/h
67 17-01-2021 18:00:00 1.69167 C 5.22 g/m*3 1.69 C 2.4 km/h
68 17-01-2021 19:00:00 1.8 C 5.26 g/m*3 1.8 C 2.13333 km/h
69 17-01-2021 20:00:00 1.86667 C 5.29 g/m*3 1.87 C 2.66667 km/h
70 17-01-2021 21:00:00 1.95833 C 5.32 g/m*3 1.96 C 2.13333 km/h
71 17-01-2021 22:00:00 2.11667 C 5.41 g/m*3 2.12 C 1.06667 km/h
72 17-01-2021 23:00:00 2.275 C 5.49 g/m*3 2.28 C 2 km/h

Maximal/Minimal-Werte vom 23.02.2003 - 03.08.2020

Sensor Min Max Avg
Temp
(Aussen-T/F)
-16.4 °C
20-12-2009  01:30:01
40.4 °C
25-07-2019  16:20:00
11.23 °C

Die Daten stammen von einer Davis Vantage Pro 2 Wetter-Station und werden unter Linux mit der Software wview2wettercgi und aufbereitet. Alle Angaben erfolgen ohne Gewähr für ihre Vollständigkeit oder Richtigkeit.
Kontakt: Rainer Krienke krienke@uni-koblenz.de . Meine Webseiten an der Uni Koblenz oder privat.
Version: $Revision: 0.78 $